createdAt,value
2024-02-02T00:01:13.194Z,74.55
2024-02-02T00:03:40.989Z,63.60
2024-02-02T00:06:09.237Z,69.13
2024-02-02T00:08:37.234Z,70.35
2024-02-02T00:11:06.859Z,74.82
2024-02-02T00:13:34.491Z,68.65
2024-02-02T00:16:02.163Z,77.53
2024-02-02T00:18:30.021Z,80.30
2024-02-02T00:20:58.621Z,78.78
2024-02-02T00:23:26.267Z,71.05
2024-02-02T00:25:53.982Z,70.05
2024-02-02T00:28:23.265Z,67.07
2024-02-02T00:30:50.975Z,82.35
2024-02-02T00:33:18.760Z,83.18
2024-02-02T00:35:46.488Z,80.40
2024-02-02T00:38:14.123Z,76.30
2024-02-02T00:40:41.754Z,68.95
2024-02-02T00:43:09.801Z,76.13
2024-02-02T00:45:38.822Z,73.03
2024-02-02T00:48:08.136Z,60.83
2024-02-02T00:50:35.943Z,70.20
2024-02-02T00:53:03.624Z,69.63
2024-02-02T00:55:31.405Z,76.45
2024-02-02T00:57:59.090Z,74.07
2024-02-02T01:00:27.099Z,77.07
2024-02-02T01:02:56.466Z,71.38
2024-02-02T01:05:24.218Z,76.55
2024-02-02T01:07:51.871Z,75.28
2024-02-02T01:10:19.683Z,72.88
2024-02-02T01:12:48.079Z,81.53
2024-02-02T01:15:17.695Z,82.90
2024-02-02T01:17:47.167Z,73.38
2024-02-02T01:20:16.917Z,77.60
2024-02-02T01:22:44.600Z,82.28
2024-02-02T01:25:13.139Z,72.38
2024-02-02T01:27:41.068Z,81.22
2024-02-02T01:30:09.260Z,86.07
2024-02-02T01:32:37.103Z,86.03
2024-02-02T01:35:05.025Z,93.53
2024-02-02T01:37:34.773Z,77.75
2024-02-02T01:40:02.484Z,77.10
2024-02-02T01:42:31.251Z,77.47
2024-02-02T01:44:59.378Z,82.80
2024-02-02T01:47:27.558Z,83.50
2024-02-02T01:49:55.256Z,79.35
2024-02-02T01:52:22.940Z,84.03
2024-02-02T01:54:52.114Z,80.22
2024-02-02T01:57:20.512Z,87.85
2024-02-02T01:59:48.578Z,75.93
2024-02-02T02:02:18.922Z,74.38
2024-02-02T02:04:46.745Z,79.15
2024-02-02T02:07:14.547Z,83.45
2024-02-02T02:09:44.062Z,77.93
2024-02-02T02:12:13.750Z,70.43
2024-02-02T02:14:41.476Z,64.85
2024-02-02T02:17:09.436Z,76.30
2024-02-02T02:19:37.556Z,80.53
2024-02-02T02:22:06.817Z,67.75
2024-02-02T02:24:34.494Z,73.80
2024-02-02T02:27:02.600Z,77.65
2024-02-02T02:29:30.300Z,71.68
2024-02-02T02:31:58.707Z,62.72
2024-02-02T02:34:28.110Z,61.58
2024-02-02T02:36:56.200Z,56.53
2024-02-02T02:39:25.234Z,66.25
2024-02-02T02:41:52.978Z,59.95
2024-02-02T02:44:20.693Z,65.60
2024-02-02T02:46:49.244Z,74.55
2024-02-02T02:49:17.214Z,81.72
2024-02-02T02:51:44.968Z,79.75
2024-02-02T02:54:12.694Z,79.68
2024-02-02T02:56:41.777Z,81.28
2024-02-02T02:59:09.443Z,84.93
2024-02-02T03:01:37.483Z,86.18
2024-02-02T03:04:05.244Z,78.82
2024-02-02T03:06:33.067Z,77.07
2024-02-02T03:09:01.360Z,79.03
2024-02-02T03:11:30.100Z,68.53
2024-02-02T03:13:59.166Z,70.00
2024-02-02T03:16:26.858Z,79.70
2024-02-02T03:18:54.738Z,95.78
2024-02-02T03:21:22.550Z,85.57
2024-02-02T03:23:50.252Z,81.47
2024-02-02T03:26:17.853Z,91.45
2024-02-02T03:28:45.548Z,97.90
2024-02-02T03:31:14.603Z,84.85
2024-02-02T03:33:42.381Z,71.35
2024-02-02T03:36:10.346Z,73.05
2024-02-02T03:38:38.061Z,74.22
2024-02-02T03:41:05.854Z,66.28
2024-02-02T03:43:33.526Z,61.88
2024-02-02T03:46:01.617Z,63.80
2024-02-02T03:48:31.154Z,78.53
2024-02-02T03:50:58.902Z,72.13
2024-02-02T03:53:29.202Z,81.47
2024-02-02T03:55:56.964Z,83.90
2024-02-02T03:58:24.733Z,83.32
2024-02-02T04:00:52.687Z,80.88
2024-02-02T04:03:20.695Z,89.60
2024-02-02T04:05:49.926Z,74.88
2024-02-02T04:08:17.716Z,79.03
2024-02-02T04:10:45.456Z,80.10
2024-02-02T04:13:13.146Z,77.00
2024-02-02T04:15:41.183Z,68.53
2024-02-02T04:18:09.254Z,53.33
2024-02-02T04:20:37.020Z,55.10
2024-02-02T04:23:06.258Z,52.75
2024-02-02T04:25:34.061Z,57.25
2024-02-02T04:28:01.736Z,49.85
2024-02-02T04:30:31.527Z,45.90
2024-02-02T04:32:59.586Z,46.60
2024-02-02T04:35:27.363Z,48.60
2024-02-02T04:37:55.083Z,48.53
2024-02-02T04:40:24.126Z,49.88
2024-02-02T04:42:52.000Z,47.22
2024-02-02T04:45:19.876Z,44.90
2024-02-02T04:47:47.730Z,50.17
2024-02-02T04:50:15.602Z,53.08
2024-02-02T04:52:43.335Z,48.65
2024-02-02T04:55:11.330Z,53.58
2024-02-02T04:57:40.611Z,64.95
2024-02-02T05:00:09.964Z,63.28
2024-02-02T05:02:37.655Z,57.25
2024-02-02T05:05:06.493Z,61.08
2024-02-02T05:07:34.178Z,55.08
2024-02-02T05:10:01.946Z,63.83
2024-02-02T05:12:29.720Z,58.20
2024-02-02T05:14:58.758Z,65.90
2024-02-02T05:17:26.472Z,60.15
2024-02-02T05:19:54.363Z,64.38
2024-02-02T05:22:22.053Z,83.32
2024-02-02T05:24:50.667Z,83.50
2024-02-02T05:27:18.576Z,85.10
2024-02-02T05:29:46.446Z,86.88
2024-02-02T05:32:15.741Z,99.13
2024-02-02T05:34:45.349Z,128.27
2024-02-02T05:37:13.250Z,125.00
2024-02-02T05:39:41.019Z,111.93
2024-02-02T05:42:08.941Z,123.63
2024-02-02T05:44:36.775Z,126.30
2024-02-02T05:47:04.493Z,114.72
2024-02-02T05:49:33.739Z,110.10
2024-02-02T05:52:02.608Z,105.90
2024-02-02T05:54:31.229Z,88.40
2024-02-02T05:56:59.086Z,92.88
2024-02-02T05:59:26.805Z,99.05
2024-02-02T06:01:55.567Z,105.18
2024-02-02T06:04:23.225Z,89.47
2024-02-02T06:06:52.637Z,87.47
2024-02-02T06:09:20.537Z,85.03
2024-02-02T06:11:48.298Z,103.55
2024-02-02T06:14:15.967Z,79.40
2024-02-02T06:16:46.625Z,90.63
2024-02-02T06:19:14.479Z,80.85
2024-02-02T06:21:42.350Z,84.03
2024-02-02T06:24:11.596Z,72.97
2024-02-02T06:26:39.260Z,86.60
2024-02-02T06:29:06.993Z,81.40
2024-02-02T06:31:34.612Z,78.80
2024-02-02T06:34:02.604Z,75.30
2024-02-02T06:36:30.921Z,78.82
2024-02-02T06:38:58.945Z,73.20
2024-02-02T06:41:28.206Z,77.40
2024-02-02T06:43:55.943Z,86.53
2024-02-02T06:46:23.670Z,88.35
2024-02-02T06:48:51.449Z,82.78
2024-02-02T06:51:19.271Z,82.38
2024-02-02T06:53:47.189Z,76.35
2024-02-02T06:56:30.050Z,80.28
2024-02-02T06:58:59.172Z,77.95
2024-02-02T07:01:27.191Z,77.13
2024-02-02T07:03:54.996Z,82.30
2024-02-02T07:06:23.165Z,89.95
2024-02-02T07:08:51.561Z,82.25
2024-02-02T07:11:34.903Z,82.68
2024-02-02T07:14:10.518Z,78.78
2024-02-02T07:16:38.900Z,89.72
2024-02-02T07:19:06.761Z,96.75
2024-02-02T07:21:35.380Z,86.63
2024-02-02T07:24:05.256Z,84.65
2024-02-02T07:26:33.780Z,75.15
2024-02-02T07:29:06.934Z,73.80
2024-02-02T07:31:40.009Z,75.47
2024-02-02T07:34:23.018Z,81.65
2024-02-02T07:36:51.305Z,74.82
2024-02-02T07:39:25.522Z,82.60
2024-02-02T07:41:53.281Z,87.00
2024-02-02T07:44:21.004Z,83.72
2024-02-02T07:46:50.174Z,72.47
2024-02-02T07:49:17.870Z,77.10
2024-02-02T07:51:45.563Z,81.50
2024-02-02T07:54:14.174Z,75.28
2024-02-02T07:56:42.118Z,83.70
2024-02-02T07:59:09.847Z,69.63
2024-02-02T08:01:38.220Z,74.15
2024-02-02T08:04:07.545Z,65.47
2024-02-02T08:06:35.552Z,69.78
2024-02-02T08:09:03.309Z,72.15
2024-02-02T08:11:36.650Z,73.13
2024-02-02T08:14:04.525Z,64.75
2024-02-02T08:16:32.233Z,67.75
2024-02-02T08:19:00.749Z,68.20
2024-02-02T08:21:29.940Z,65.25
2024-02-02T08:23:57.683Z,67.03
2024-02-02T08:26:25.741Z,64.80
2024-02-02T08:28:55.329Z,67.32
2024-02-02T08:31:23.370Z,58.25
2024-02-02T08:33:51.321Z,62.35
2024-02-02T08:36:19.905Z,63.28
2024-02-02T08:38:49.060Z,57.08
2024-02-02T08:41:17.445Z,60.42
2024-02-02T08:43:46.617Z,57.55
2024-02-02T08:46:15.215Z,51.63
2024-02-02T08:48:45.903Z,54.92
2024-02-02T08:51:30.635Z,49.28
2024-02-02T08:54:09.704Z,48.88
2024-02-02T08:56:37.423Z,38.80
2024-02-02T08:59:08.092Z,38.75
2024-02-02T09:01:41.042Z,39.65
2024-02-02T09:04:24.140Z,42.75
2024-02-02T09:06:52.092Z,37.00
2024-02-02T09:09:22.062Z,33.75
2024-02-02T09:11:50.278Z,30.52
2024-02-02T09:14:19.540Z,29.60
2024-02-02T09:16:48.903Z,34.15
2024-02-02T09:19:25.204Z,31.88
2024-02-02T09:21:53.158Z,29.65
2024-02-02T09:24:37.324Z,34.05
2024-02-02T09:27:05.564Z,27.85
2024-02-02T09:29:33.448Z,34.00
2024-02-02T09:32:01.190Z,30.77
2024-02-02T09:34:35.352Z,30.75
2024-02-02T09:37:03.438Z,27.20
2024-02-02T09:39:48.976Z,26.83
2024-02-02T09:42:32.272Z,27.58
2024-02-02T09:45:02.558Z,31.60
2024-02-02T09:47:38.650Z,24.98
2024-02-02T09:50:10.808Z,24.63
2024-02-02T09:52:42.868Z,29.95
2024-02-02T09:57:43.352Z,30.17
2024-02-02T10:00:17.774Z,26.02
2024-02-02T10:02:51.300Z,29.33
2024-02-02T10:05:20.951Z,29.67
2024-02-02T10:07:55.132Z,22.52
2024-02-02T10:10:29.231Z,22.55
2024-02-02T10:13:03.924Z,20.98
2024-02-02T10:15:41.226Z,18.58
2024-02-02T10:18:20.455Z,16.60
2024-02-02T10:20:52.466Z,17.63
2024-02-02T10:23:31.963Z,15.38
2024-02-02T10:26:05.377Z,16.35
2024-02-02T10:28:41.448Z,11.20
2024-02-02T10:31:15.970Z,11.63
2024-02-02T10:33:50.414Z,11.23
2024-02-02T10:36:22.817Z,13.30
2024-02-02T10:39:00.369Z,12.15
2024-02-02T10:41:33.010Z,10.18
2024-02-02T10:44:07.839Z,10.98
2024-02-02T10:46:38.589Z,14.35
2024-02-02T10:49:15.609Z,11.20
2024-02-02T10:51:45.261Z,12.70
2024-02-02T10:54:21.518Z,11.25
2024-02-02T10:56:58.962Z,11.77
2024-02-02T10:59:35.484Z,13.38
2024-02-02T11:02:08.135Z,13.25
2024-02-02T11:04:37.508Z,12.18
2024-02-02T11:07:09.513Z,22.17
2024-02-02T11:12:07.798Z,12.15
2024-02-02T11:14:39.661Z,11.13
2024-02-02T11:17:10.715Z,11.45
2024-02-02T11:19:56.115Z,11.27
2024-02-02T11:22:26.846Z,13.40
2024-02-02T11:25:07.875Z,12.13
2024-02-02T11:27:40.969Z,11.50
2024-02-02T11:30:18.326Z,12.65
2024-02-02T11:32:56.014Z,10.43
2024-02-02T11:35:29.888Z,11.32
2024-02-02T11:38:02.547Z,13.00
2024-02-02T11:40:31.085Z,10.27
2024-02-02T11:43:00.349Z,10.93
2024-02-02T11:45:32.761Z,10.38
2024-02-02T11:48:03.270Z,11.50
2024-02-02T11:50:33.174Z,13.77
2024-02-02T11:53:05.238Z,12.52
2024-02-02T11:55:34.313Z,8.48
2024-02-02T11:58:04.389Z,9.13
2024-02-02T12:00:41.776Z,9.63
2024-02-02T12:03:18.715Z,7.90
2024-02-02T12:05:51.656Z,8.32
2024-02-02T12:08:23.943Z,7.63
2024-02-02T12:10:51.949Z,8.95
2024-02-02T12:13:23.002Z,6.55
2024-02-02T12:15:54.083Z,8.48
2024-02-02T12:18:22.019Z,13.45
2024-02-02T12:20:49.808Z,9.75
2024-02-02T12:23:17.839Z,7.53
2024-02-02T12:25:45.537Z,5.10
2024-02-02T12:28:13.182Z,9.38
2024-02-02T12:30:40.889Z,6.07
2024-02-02T12:33:10.060Z,4.50
2024-02-02T12:35:37.826Z,5.07
2024-02-02T12:38:05.852Z,6.28
2024-02-02T12:40:33.676Z,6.47
2024-02-02T12:43:03.560Z,8.07
2024-02-02T12:45:32.817Z,8.73
2024-02-02T12:48:01.611Z,7.60
2024-02-02T12:50:30.740Z,7.32
2024-02-02T12:52:59.602Z,7.97
2024-02-02T12:55:27.358Z,5.72
2024-02-02T12:57:55.061Z,6.18
2024-02-02T13:00:25.641Z,7.43
2024-02-02T13:02:55.621Z,7.18
2024-02-02T13:05:25.830Z,7.93
2024-02-02T13:07:55.000Z,5.20
2024-02-02T13:10:36.556Z,4.93
2024-02-02T13:13:11.762Z,6.35
2024-02-02T13:15:39.913Z,8.25
2024-02-02T13:18:13.664Z,6.68
2024-02-02T13:20:43.494Z,8.13
2024-02-02T13:23:17.687Z,5.25
2024-02-02T13:25:45.355Z,7.22
2024-02-02T13:28:17.115Z,5.30
2024-02-02T13:30:53.928Z,4.65
2024-02-02T13:33:24.162Z,5.00
2024-02-02T13:35:54.753Z,8.32
2024-02-02T13:38:25.195Z,6.47
2024-02-02T13:40:54.966Z,5.20
2024-02-02T13:43:22.943Z,5.18
2024-02-02T13:45:50.884Z,8.63
2024-02-02T13:48:18.634Z,7.85
2024-02-02T13:50:53.207Z,8.50
2024-02-02T13:53:24.877Z,4.18
2024-02-02T13:55:53.236Z,6.32
2024-02-02T13:58:21.072Z,5.53
2024-02-02T14:00:52.993Z,6.53
2024-02-02T14:05:52.126Z,6.20
2024-02-02T14:08:21.343Z,6.63
2024-02-02T14:10:50.404Z,6.22
2024-02-02T14:13:20.375Z,7.35
2024-02-02T14:15:49.762Z,8.10
2024-02-02T14:18:18.044Z,6.25
2024-02-02T14:20:45.815Z,6.93
2024-02-02T14:23:13.854Z,7.30
2024-02-02T14:25:41.678Z,8.82
2024-02-02T14:28:17.874Z,5.70
2024-02-02T14:30:46.049Z,7.38
2024-02-02T14:33:22.315Z,10.73
2024-02-02T14:35:53.408Z,7.18
2024-02-02T14:38:21.387Z,6.75
2024-02-02T14:40:49.899Z,6.20
2024-02-02T14:43:19.090Z,8.18
2024-02-02T14:45:48.027Z,6.15
2024-02-02T14:48:15.966Z,6.00
2024-02-02T14:50:43.729Z,6.35
2024-02-02T14:53:11.366Z,7.43
2024-02-02T14:55:38.975Z,8.70
2024-02-02T14:58:06.641Z,5.35
2024-02-02T15:00:42.496Z,10.25
2024-02-02T15:03:10.260Z,5.00
2024-02-02T15:05:38.512Z,6.03
2024-02-02T15:08:06.639Z,5.40
2024-02-02T15:10:35.187Z,7.78
2024-02-02T15:13:02.966Z,5.32
2024-02-02T15:15:30.717Z,9.30
2024-02-02T15:18:00.277Z,7.05
2024-02-02T15:20:28.042Z,6.45
2024-02-02T15:22:55.865Z,6.63
2024-02-02T15:25:23.537Z,6.10
2024-02-02T15:27:51.343Z,8.50
2024-02-02T15:30:19.185Z,6.13
2024-02-02T15:32:47.341Z,5.15
2024-02-02T15:35:16.892Z,6.57
2024-02-02T15:37:44.776Z,5.30
2024-02-02T15:40:15.010Z,5.88
2024-02-02T15:42:41.832Z,4.80
2024-02-02T15:45:11.333Z,4.68
2024-02-02T15:47:39.173Z,4.55
2024-02-02T15:50:07.255Z,4.93
2024-02-02T15:52:36.417Z,4.85
2024-02-02T15:55:05.946Z,8.25
2024-02-02T15:57:33.723Z,4.25
2024-02-02T16:00:01.537Z,4.63
2024-02-02T16:02:29.235Z,4.85
2024-02-02T16:04:57.736Z,3.85
2024-02-02T16:07:25.680Z,4.55
2024-02-02T16:09:57.455Z,3.83
2024-02-02T16:12:25.252Z,6.38
2024-02-02T16:14:52.991Z,5.65
2024-02-02T16:17:20.601Z,7.00
2024-02-02T16:19:48.563Z,4.85
2024-02-02T16:22:16.358Z,4.20
2024-02-02T16:24:44.088Z,6.47
2024-02-02T16:27:13.345Z,4.55
2024-02-02T16:29:41.114Z,6.43
2024-02-02T16:32:10.178Z,4.85
2024-02-02T16:34:37.985Z,3.28
2024-02-02T16:37:05.946Z,3.92
2024-02-02T16:39:34.389Z,4.78
2024-02-02T16:42:02.717Z,5.65
2024-02-02T16:44:31.883Z,3.90
2024-02-02T16:47:01.222Z,5.50
2024-02-02T16:49:29.300Z,7.28
2024-02-02T16:51:57.121Z,4.45
2024-02-02T16:54:24.900Z,5.10
2024-02-02T16:56:53.326Z,7.90
2024-02-02T16:59:21.006Z,4.93
2024-02-02T17:01:50.129Z,5.57
2024-02-02T17:04:18.004Z,4.47
2024-02-02T17:06:45.875Z,15.10
2024-02-02T17:09:13.719Z,3.90
2024-02-02T17:11:41.428Z,3.85
2024-02-02T17:14:09.662Z,5.60
2024-02-02T17:16:37.355Z,4.70
2024-02-02T17:19:06.940Z,7.85
2024-02-02T17:21:34.750Z,4.65
2024-02-02T17:24:02.415Z,4.85
2024-02-02T17:26:30.193Z,3.85
2024-02-02T17:29:03.629Z,5.40
2024-02-02T17:31:38.924Z,5.45
2024-02-02T17:34:08.001Z,5.15
2024-02-02T17:36:35.785Z,4.20
2024-02-02T17:39:03.664Z,4.53
2024-02-02T17:41:31.523Z,4.38
2024-02-02T17:43:59.239Z,5.63
2024-02-02T17:46:26.892Z,5.53
2024-02-02T17:48:54.717Z,12.43
2024-02-02T17:51:25.437Z,6.30
2024-02-02T17:53:53.898Z,8.13
2024-02-02T17:56:22.439Z,7.05
2024-02-02T17:58:55.725Z,7.97
2024-02-02T18:01:23.790Z,8.55
2024-02-02T18:03:52.577Z,5.60
2024-02-02T18:06:20.523Z,4.30
2024-02-02T18:08:49.872Z,4.90
2024-02-02T18:11:17.597Z,2.95
2024-02-02T18:13:45.381Z,4.55
2024-02-02T18:16:14.447Z,4.38
2024-02-02T18:18:42.591Z,3.10
2024-02-02T18:21:10.555Z,3.20
2024-02-02T18:23:38.717Z,3.38
2024-02-02T18:26:08.200Z,4.28
2024-02-02T18:28:35.986Z,4.50
2024-02-02T18:31:04.476Z,5.10
2024-02-02T18:33:32.397Z,3.67
2024-02-02T18:36:00.268Z,8.00
2024-02-02T18:38:28.142Z,3.88
2024-02-02T18:40:55.832Z,4.20
2024-02-02T18:43:24.902Z,4.50
2024-02-02T18:45:52.567Z,6.65
2024-02-02T18:48:24.775Z,3.47
2024-02-02T18:50:52.636Z,4.57
2024-02-02T18:53:20.333Z,3.85
2024-02-02T18:55:50.200Z,3.55
2024-02-02T18:58:19.453Z,4.18
2024-02-02T19:00:49.825Z,4.85
2024-02-02T19:03:17.729Z,5.85
2024-02-02T19:05:48.054Z,4.38
2024-02-02T19:08:15.932Z,6.85
2024-02-02T19:10:45.524Z,4.00
2024-02-02T19:13:13.575Z,5.13
2024-02-02T19:15:41.362Z,5.50
2024-02-02T19:18:12.729Z,5.55
2024-02-02T19:20:41.709Z,8.02
2024-02-02T19:23:09.363Z,7.65
2024-02-02T19:25:36.986Z,12.13
2024-02-02T19:28:05.701Z,8.98
2024-02-02T19:30:33.497Z,27.67
2024-02-02T19:33:01.337Z,37.95
2024-02-02T19:35:30.361Z,10.00
2024-02-02T19:37:58.047Z,8.27
2024-02-02T19:40:25.708Z,8.32
2024-02-02T19:42:53.788Z,11.18
2024-02-02T19:45:21.638Z,6.60
2024-02-02T19:47:49.608Z,25.40
2024-02-02T19:50:17.405Z,9.85
2024-02-02T19:52:46.558Z,7.93
2024-02-02T19:55:14.667Z,8.10
2024-02-02T19:57:42.493Z,4.05
2024-02-02T20:00:14.862Z,7.85
2024-02-02T20:02:43.018Z,11.30
2024-02-02T20:05:10.959Z,7.07
2024-02-02T20:07:38.775Z,7.10
2024-02-02T20:10:09.772Z,6.55
2024-02-02T20:12:38.063Z,4.93
2024-02-02T20:15:06.178Z,6.95
2024-02-02T20:17:33.967Z,8.05
2024-02-02T20:20:01.847Z,5.03
2024-02-02T20:22:29.699Z,4.35
2024-02-02T20:24:57.505Z,6.93
2024-02-02T20:27:26.853Z,7.97
2024-02-02T20:29:54.541Z,6.68
2024-02-02T20:32:22.185Z,11.88
2024-02-02T20:34:49.123Z,25.30
2024-02-02T20:37:17.073Z,10.35
2024-02-02T20:39:44.963Z,8.88
2024-02-02T20:42:14.921Z,8.65
2024-02-02T20:44:44.308Z,5.15
2024-02-02T20:47:12.278Z,5.22
2024-02-02T20:49:45.149Z,6.70
2024-02-02T20:52:14.276Z,5.68
2024-02-02T20:54:42.409Z,6.43
2024-02-02T20:57:10.260Z,4.05
2024-02-02T20:59:38.056Z,3.75
2024-02-02T21:02:07.445Z,5.93
2024-02-02T21:04:35.281Z,7.80
2024-02-02T21:07:08.424Z,9.45
2024-02-02T21:09:39.026Z,8.43
2024-02-02T21:12:08.171Z,8.23
2024-02-02T21:14:35.930Z,10.27
2024-02-02T21:17:03.768Z,11.63
2024-02-02T21:19:33.325Z,14.75
2024-02-02T21:22:02.843Z,10.68
2024-02-02T21:24:30.749Z,14.48
2024-02-02T21:26:58.561Z,10.82
2024-02-02T21:29:26.938Z,7.20
2024-02-02T21:31:54.709Z,12.05
2024-02-02T21:34:22.558Z,9.27
2024-02-02T21:36:51.769Z,9.85
2024-02-02T21:39:19.652Z,7.90
2024-02-02T21:41:47.519Z,13.52
2024-02-02T21:44:15.445Z,9.98
2024-02-02T21:46:43.397Z,12.48
2024-02-02T21:49:11.604Z,10.45
2024-02-02T21:51:39.543Z,10.80
2024-02-02T21:54:11.637Z,12.32
2024-02-02T21:59:07.040Z,12.65
2024-02-02T22:01:35.369Z,12.68
2024-02-02T22:04:03.161Z,9.75
2024-02-02T22:06:30.931Z,9.18
2024-02-02T22:08:59.155Z,7.97
2024-02-02T22:11:28.307Z,9.13
2024-02-02T22:13:56.037Z,7.68
2024-02-02T22:16:23.733Z,5.53
2024-02-02T22:18:51.603Z,4.97
2024-02-02T22:21:24.665Z,4.15
2024-02-02T22:23:52.549Z,9.18
2024-02-02T22:26:20.559Z,7.78
2024-02-02T22:28:49.631Z,7.60
2024-02-02T22:31:21.347Z,10.25
2024-02-02T22:33:49.617Z,10.68
2024-02-02T22:36:18.037Z,6.25
2024-02-02T22:38:45.755Z,5.68
2024-02-02T22:41:28.848Z,10.45
2024-02-02T22:44:02.921Z,7.30
2024-02-02T22:46:31.590Z,6.32
2024-02-02T22:48:59.504Z,7.15
2024-02-02T22:51:27.893Z,5.85
2024-02-02T22:53:55.606Z,9.40
2024-02-02T22:56:23.424Z,11.73
2024-02-02T22:58:51.245Z,10.35
2024-02-02T23:01:20.461Z,11.32
2024-02-02T23:03:48.471Z,9.80
2024-02-02T23:06:16.377Z,8.68
2024-02-02T23:08:44.181Z,13.43
2024-02-02T23:11:11.897Z,12.80
2024-02-02T23:13:39.635Z,13.35
2024-02-02T23:16:07.635Z,12.50
2024-02-02T23:18:36.936Z,11.63
2024-02-02T23:21:05.305Z,9.07
2024-02-02T23:23:34.301Z,13.32
2024-02-02T23:26:02.224Z,12.63
2024-02-02T23:28:30.091Z,15.25
2024-02-02T23:30:57.800Z,12.68
2024-02-02T23:33:26.837Z,16.77
2024-02-02T23:35:56.777Z,10.60
2024-02-02T23:38:24.424Z,11.00
2024-02-02T23:40:52.194Z,15.73
2024-02-02T23:43:19.827Z,14.90
2024-02-02T23:45:47.570Z,12.35
2024-02-02T23:48:17.543Z,14.23
2024-02-02T23:50:46.092Z,10.80
2024-02-02T23:53:15.431Z,11.55
2024-02-02T23:55:43.100Z,11.75
2024-02-02T23:58:10.750Z,12.57
